sensor_id;sensor_type;location;lat;lon;timestamp;pressure;altitude;pressure_sealevel;temperature
8533;BMP280;4304;53.876;10.662;2023-05-07T00:01:03;102242.72;;;8.77
8533;BMP280;4304;53.876;10.662;2023-05-07T00:03:32;102245.34;;;8.75
8533;BMP280;4304;53.876;10.662;2023-05-07T00:05:58;102248.78;;;8.76
8533;BMP280;4304;53.876;10.662;2023-05-07T00:08:24;102246.25;;;8.74
8533;BMP280;4304;53.876;10.662;2023-05-07T00:10:54;102247.13;;;8.75
8533;BMP280;4304;53.876;10.662;2023-05-07T00:13:30;102249.81;;;8.72
8533;BMP280;4304;53.876;10.662;2023-05-07T00:16:05;102245.19;;;8.80
8533;BMP280;4304;53.876;10.662;2023-05-07T00:18:32;102242.72;;;8.77
8533;BMP280;4304;53.876;10.662;2023-05-07T00:20:58;102247.06;;;8.76
8533;BMP280;4304;53.876;10.662;2023-05-07T00:23:24;102252.16;;;8.78
8533;BMP280;4304;53.876;10.662;2023-05-07T00:25:49;102252.25;;;8.76
8533;BMP280;4304;53.876;10.662;2023-05-07T00:28:15;102259.94;;;8.78
8533;BMP280;4304;53.876;10.662;2023-05-07T00:30:40;102249.91;;;8.69
8533;BMP280;4304;53.876;10.662;2023-05-07T00:33:06;102254.31;;;8.67
8533;BMP280;4304;53.876;10.662;2023-05-07T00:35:31;102255.78;;;8.74
8533;BMP280;4304;53.876;10.662;2023-05-07T00:37:57;102247.38;;;8.67
8533;BMP280;4304;53.876;10.662;2023-05-07T00:40:23;102250.69;;;8.71
8533;BMP280;4304;53.876;10.662;2023-05-07T00:42:48;102253.34;;;8.69
8533;BMP280;4304;53.876;10.662;2023-05-07T00:45:15;102251.66;;;8.68
8533;BMP280;4304;53.876;10.662;2023-05-07T00:47:43;102255.16;;;8.67
8533;BMP280;4304;53.876;10.662;2023-05-07T00:50:10;102255.03;;;8.70
8533;BMP280;4304;53.876;10.662;2023-05-07T00:52:37;102253.34;;;8.69
8533;BMP280;4304;53.876;10.662;2023-05-07T00:55:06;102260.22;;;8.70
8533;BMP280;4304;53.876;10.662;2023-05-07T00:57:40;102266.25;;;8.71
8533;BMP280;4304;53.876;10.662;2023-05-07T01:00:09;102262.78;;;8.72
8533;BMP280;4304;53.876;10.662;2023-05-07T01:02:35;102256.72;;;8.71
8533;BMP280;4304;53.876;10.662;2023-05-07T01:05:03;102259.53;;;8.65
8533;BMP280;4304;53.876;10.662;2023-05-07T01:07:31;102262.13;;;8.65
8533;BMP280;4304;53.876;10.662;2023-05-07T01:09:58;102252.75;;;8.61
8533;BMP280;4304;53.876;10.662;2023-05-07T01:12:25;102248.41;;;8.63
8533;BMP280;4304;53.876;10.662;2023-05-07T01:14:53;102249.28;;;8.62
8533;BMP280;4304;53.876;10.662;2023-05-07T01:17:20;102249.03;;;8.70
8533;BMP280;4304;53.876;10.662;2023-05-07T01:19:46;102245.81;;;8.63
8533;BMP280;4304;53.876;10.662;2023-05-07T01:22:14;102249.19;;;8.65
8533;BMP280;4304;53.876;10.662;2023-05-07T01:24:42;102251.09;;;8.60
8533;BMP280;4304;53.876;10.662;2023-05-07T01:27:08;102249.34;;;8.61
8533;BMP280;4304;53.876;10.662;2023-05-07T01:29:33;102254.47;;;8.62
8533;BMP280;4304;53.876;10.662;2023-05-07T01:32:01;102249.38;;;8.59
8533;BMP280;4304;53.876;10.662;2023-05-07T01:34:31;102257.16;;;8.59
8533;BMP280;4304;53.876;10.662;2023-05-07T01:36:59;102242.63;;;8.55
8533;BMP280;4304;53.876;10.662;2023-05-07T01:39:26;102250.16;;;8.61
8533;BMP280;4304;53.876;10.662;2023-05-07T01:41:55;102240.63;;;8.63
8533;BMP280;4304;53.876;10.662;2023-05-07T01:44:21;102250.16;;;8.61
8533;BMP280;4304;53.876;10.662;2023-05-07T01:46:47;102239.13;;;8.56
8533;BMP280;4304;53.876;10.662;2023-05-07T01:49:13;102249.06;;;8.68
8533;BMP280;4304;53.876;10.662;2023-05-07T01:51:39;102254.94;;;8.73
8533;BMP280;4304;53.876;10.662;2023-05-07T01:54:05;102254.13;;;8.71
8533;BMP280;4304;53.876;10.662;2023-05-07T01:56:32;102259.50;;;8.67
8533;BMP280;4304;53.876;10.662;2023-05-07T01:58:57;102260.38;;;8.66
8533;BMP280;4304;53.876;10.662;2023-05-07T02:01:23;102247.31;;;8.69
8533;BMP280;4304;53.876;10.662;2023-05-07T02:03:48;102269.91;;;8.65
8533;BMP280;4304;53.876;10.662;2023-05-07T02:06:15;102255.19;;;8.66
8533;BMP280;4304;53.876;10.662;2023-05-07T02:08:40;102253.56;;;8.63
8533;BMP280;4304;53.876;10.662;2023-05-07T02:11:07;102266.28;;;8.69
8533;BMP280;4304;53.876;10.662;2023-05-07T02:13:33;102268.25;;;8.63
8533;BMP280;4304;53.876;10.662;2023-05-07T02:16:00;102273.44;;;8.63
8533;BMP280;4304;53.876;10.662;2023-05-07T02:18:26;102275.09;;;8.65
8533;BMP280;4304;53.876;10.662;2023-05-07T02:20:52;102269.22;;;8.60
8533;BMP280;4304;53.876;10.662;2023-05-07T02:23:17;102275.97;;;8.64
8533;BMP280;4304;53.876;10.662;2023-05-07T02:25:43;102263.81;;;8.66
8533;BMP280;4304;53.876;10.662;2023-05-07T02:28:09;102276.03;;;8.63
8533;BMP280;4304;53.876;10.662;2023-05-07T02:30:36;102270.75;;;8.66
8533;BMP280;4304;53.876;10.662;2023-05-07T02:33:02;102282.13;;;8.62
8533;BMP280;4304;53.876;10.662;2023-05-07T02:35:27;102269.84;;;8.67
8533;BMP280;4304;53.876;10.662;2023-05-07T02:37:53;102276.84;;;8.65
8533;BMP280;4304;53.876;10.662;2023-05-07T02:40:19;102271.81;;;8.60
8533;BMP280;4304;53.876;10.662;2023-05-07T02:42:45;102278.75;;;8.60
8533;BMP280;4304;53.876;10.662;2023-05-07T02:45:10;102275.25;;;8.61
8533;BMP280;4304;53.876;10.662;2023-05-07T02:47:38;102278.63;;;8.63
8533;BMP280;4304;53.876;10.662;2023-05-07T02:50:06;102270.97;;;8.60
8533;BMP280;4304;53.876;10.662;2023-05-07T02:52:31;102278.13;;;8.53
8533;BMP280;4304;53.876;10.662;2023-05-07T02:54:56;102277.09;;;8.57
8533;BMP280;4304;53.876;10.662;2023-05-07T02:57:22;102279.78;;;8.54
8533;BMP280;4304;53.876;10.662;2023-05-07T02:59:48;102279.00;;;8.52
8533;BMP280;4304;53.876;10.662;2023-05-07T03:02:13;102272.22;;;8.50
8533;BMP280;4304;53.876;10.662;2023-05-07T03:04:39;102275.53;;;8.53
8533;BMP280;4304;53.876;10.662;2023-05-07T03:07:05;102258.38;;;8.50
8533;BMP280;4304;53.876;10.662;2023-05-07T03:09:32;102285.22;;;8.49
8533;BMP280;4304;53.876;10.662;2023-05-07T03:11:59;102277.38;;;8.50
8533;BMP280;4304;53.876;10.662;2023-05-07T03:14:27;102285.06;;;8.51
8533;BMP280;4304;53.876;10.662;2023-05-07T03:16:53;102278.97;;;8.54
8533;BMP280;4304;53.876;10.662;2023-05-07T03:19:18;102284.19;;;8.52
8533;BMP280;4304;53.876;10.662;2023-05-07T03:21:45;102293.66;;;8.53
8533;BMP280;4304;53.876;10.662;2023-05-07T03:24:20;102295.53;;;8.50
8533;BMP280;4304;53.876;10.662;2023-05-07T03:26:53;102296.34;;;8.51
8533;BMP280;4304;53.876;10.662;2023-05-07T03:29:18;102292.06;;;8.50
8533;BMP280;4304;53.876;10.662;2023-05-07T03:31:43;102296.56;;;8.45
8533;BMP280;4304;53.876;10.662;2023-05-07T03:34:09;102286.84;;;8.51
8533;BMP280;4304;53.876;10.662;2023-05-07T03:36:34;102283.44;;;8.49
8533;BMP280;4304;53.876;10.662;2023-05-07T03:38:59;102288.72;;;8.46
8533;BMP280;4304;53.876;10.662;2023-05-07T03:41:25;102297.44;;;8.45
8533;BMP280;4304;53.876;10.662;2023-05-07T03:43:51;102288.78;;;8.45
8533;BMP280;4304;53.876;10.662;2023-05-07T03:46:16;102289.75;;;8.42
8533;BMP280;4304;53.876;10.662;2023-05-07T03:48:41;102296.78;;;8.39
8533;BMP280;4304;53.876;10.662;2023-05-07T03:51:06;102290.59;;;8.43
8533;BMP280;4304;53.876;10.662;2023-05-07T03:53:32;102291.22;;;8.49
8533;BMP280;4304;53.876;10.662;2023-05-07T03:55:57;102297.28;;;8.48
8533;BMP280;4304;53.876;10.662;2023-05-07T03:58:22;102295.88;;;8.40
8533;BMP280;4304;53.876;10.662;2023-05-07T04:00:48;102292.38;;;8.41
8533;BMP280;4304;53.876;10.662;2023-05-07T04:03:13;102300.22;;;8.39
8533;BMP280;4304;53.876;10.662;2023-05-07T04:05:39;102301.53;;;8.51
8533;BMP280;4304;53.876;10.662;2023-05-07T04:08:05;102298.25;;;8.46
8533;BMP280;4304;53.876;10.662;2023-05-07T04:10:30;102295.72;;;8.44
8533;BMP280;4304;53.876;10.662;2023-05-07T04:12:56;102309.31;;;8.51
8533;BMP280;4304;53.876;10.662;2023-05-07T04:15:23;102308.34;;;8.53
8533;BMP280;4304;53.876;10.662;2023-05-07T04:17:48;102308.41;;;8.51
8533;BMP280;4304;53.876;10.662;2023-05-07T04:20:16;102315.47;;;8.47
8533;BMP280;4304;53.876;10.662;2023-05-07T04:22:42;102309.50;;;8.45
8533;BMP280;4304;53.876;10.662;2023-05-07T04:25:08;102305.94;;;8.49
8533;BMP280;4304;53.876;10.662;2023-05-07T04:27:34;102319.59;;;8.53
8533;BMP280;4304;53.876;10.662;2023-05-07T04:30:00;102312.75;;;8.51
8533;BMP280;4304;53.876;10.662;2023-05-07T04:32:25;102306.63;;;8.53
8533;BMP280;4304;53.876;10.662;2023-05-07T04:34:51;102315.97;;;8.57
8533;BMP280;4304;53.876;10.662;2023-05-07T04:37:16;102314.41;;;8.53
8533;BMP280;4304;53.876;10.662;2023-05-07T04:39:42;102320.22;;;8.60
8533;BMP280;4304;53.876;10.662;2023-05-07T04:42:07;102321.06;;;8.60
8533;BMP280;4304;53.876;10.662;2023-05-07T04:44:34;102321.88;;;8.61
8533;BMP280;4304;53.876;10.662;2023-05-07T04:46:59;102324.34;;;8.65
8533;BMP280;4304;53.876;10.662;2023-05-07T04:49:25;102329.56;;;8.64
8533;BMP280;4304;53.876;10.662;2023-05-07T04:51:50;102329.47;;;8.67
8533;BMP280;4304;53.876;10.662;2023-05-07T04:54:16;102328.25;;;8.77
8533;BMP280;4304;53.876;10.662;2023-05-07T04:56:41;102318.03;;;8.72
8533;BMP280;4304;53.876;10.662;2023-05-07T04:59:06;102329.13;;;8.76
8533;BMP280;4304;53.876;10.662;2023-05-07T05:01:32;102332.69;;;8.73
8533;BMP280;4304;53.876;10.662;2023-05-07T05:03:57;102338.63;;;8.77
8533;BMP280;4304;53.876;10.662;2023-05-07T05:06:22;102335.28;;;8.73
8533;BMP280;4304;53.876;10.662;2023-05-07T05:08:48;102345.47;;;8.78
8533;BMP280;4304;53.876;10.662;2023-05-07T05:11:13;102341.41;;;8.71
8533;BMP280;4304;53.876;10.662;2023-05-07T05:13:40;102348.25;;;8.73
8533;BMP280;4304;53.876;10.662;2023-05-07T05:16:05;102348.03;;;8.79
8533;BMP280;4304;53.876;10.662;2023-05-07T05:18:31;102342.00;;;8.79
8533;BMP280;4304;53.876;10.662;2023-05-07T05:20:56;102335.19;;;8.76
8533;BMP280;4304;53.876;10.662;2023-05-07T05:23:21;102347.81;;;8.85
8533;BMP280;4304;53.876;10.662;2023-05-07T05:25:47;102354.81;;;8.83
8533;BMP280;4304;53.876;10.662;2023-05-07T05:28:12;102361.47;;;8.90
8533;BMP280;4304;53.876;10.662;2023-05-07T05:30:38;102355.50;;;8.88
8533;BMP280;4304;53.876;10.662;2023-05-07T05:33:04;102360.63;;;8.90
8533;BMP280;4304;53.876;10.662;2023-05-07T05:35:29;102363.03;;;8.94
8533;BMP280;4304;53.876;10.662;2023-05-07T05:37:55;102352.81;;;8.91
8533;BMP280;4304;53.876;10.662;2023-05-07T05:40:20;102365.63;;;8.94
8533;BMP280;4304;53.876;10.662;2023-05-07T05:42:46;102357.59;;;9.01
8533;BMP280;4304;53.876;10.662;2023-05-07T05:45:11;102353.16;;;9.05
8533;BMP280;4304;53.876;10.662;2023-05-07T05:47:37;102359.16;;;9.05
8533;BMP280;4304;53.876;10.662;2023-05-07T05:50:04;102365.97;;;9.09
8533;BMP280;4304;53.876;10.662;2023-05-07T05:52:31;102360.66;;;9.12
8533;BMP280;4304;53.876;10.662;2023-05-07T05:54:56;102350.84;;;9.20
8533;BMP280;4304;53.876;10.662;2023-05-07T05:57:22;102365.25;;;9.29
8533;BMP280;4304;53.876;10.662;2023-05-07T05:59:47;102359.25;;;9.27
8533;BMP280;4304;53.876;10.662;2023-05-07T06:02:12;102366.97;;;9.28
8533;BMP280;4304;53.876;10.662;2023-05-07T06:04:38;102359.09;;;9.54
8533;BMP280;4304;53.876;10.662;2023-05-07T06:07:03;102352.28;;;9.50
8533;BMP280;4304;53.876;10.662;2023-05-07T06:09:28;102349.78;;;9.48
8533;BMP280;4304;53.876;10.662;2023-05-07T06:11:53;102369.97;;;9.63
8533;BMP280;4304;53.876;10.662;2023-05-07T06:14:19;102370.19;;;9.57
8533;BMP280;4304;53.876;10.662;2023-05-07T06:16:44;102358.06;;;9.58
8533;BMP280;4304;53.876;10.662;2023-05-07T06:19:10;102376.91;;;9.84
8533;BMP280;4304;53.876;10.662;2023-05-07T06:21:35;102372.66;;;9.83
8533;BMP280;4304;53.876;10.662;2023-05-07T06:24:00;102372.22;;;9.72
8533;BMP280;4304;53.876;10.662;2023-05-07T06:26:26;102366.13;;;9.73
8533;BMP280;4304;53.876;10.662;2023-05-07T06:28:51;102372.22;;;9.72
8533;BMP280;4304;53.876;10.662;2023-05-07T06:31:18;102369.06;;;9.64
8533;BMP280;4304;53.876;10.662;2023-05-07T06:33:48;102378.00;;;9.78
8533;BMP280;4304;53.876;10.662;2023-05-07T06:36:14;102372.31;;;9.69
8533;BMP280;4304;53.876;10.662;2023-05-07T06:38:39;102376.47;;;9.75
8533;BMP280;4304;53.876;10.662;2023-05-07T06:41:07;102362.38;;;9.80
8533;BMP280;4304;53.876;10.662;2023-05-07T06:43:33;102358.38;;;9.94
8533;BMP280;4304;53.876;10.662;2023-05-07T06:45:58;102365.66;;;9.85
8533;BMP280;4304;53.876;10.662;2023-05-07T06:48:24;102363.66;;;9.91
8533;BMP280;4304;53.876;10.662;2023-05-07T06:50:50;102368.97;;;9.88
8533;BMP280;4304;53.876;10.662;2023-05-07T06:53:15;102368.97;;;9.88
8533;BMP280;4304;53.876;10.662;2023-05-07T06:55:40;102369.75;;;9.90
8533;BMP280;4304;53.876;10.662;2023-05-07T06:58:06;102390.56;;;9.89
8533;BMP280;4304;53.876;10.662;2023-05-07T07:00:32;102388.69;;;9.94
8533;BMP280;4304;53.876;10.662;2023-05-07T07:02:57;102389.50;;;9.96
8533;BMP280;4304;53.876;10.662;2023-05-07T07:05:22;102379.16;;;9.94
8533;BMP280;4304;53.876;10.662;2023-05-07T07:07:48;102383.97;;;10.24
8533;BMP280;4304;53.876;10.662;2023-05-07T07:10:21;102388.41;;;10.01
8533;BMP280;4304;53.876;10.662;2023-05-07T07:12:47;102394.81;;;10.14
8533;BMP280;4304;53.876;10.662;2023-05-07T07:15:13;102389.97;;;10.05
8533;BMP280;4304;53.876;10.662;2023-05-07T07:17:39;102384.31;;;10.17
8533;BMP280;4304;53.876;10.662;2023-05-07T07:20:05;102387.97;;;10.12
8533;BMP280;4304;53.876;10.662;2023-05-07T07:22:30;102382.94;;;10.28
8533;BMP280;4304;53.876;10.662;2023-05-07T07:24:56;102402.34;;;10.41
8533;BMP280;4304;53.876;10.662;2023-05-07T07:27:21;102415.56;;;10.57
8533;BMP280;4304;53.876;10.662;2023-05-07T07:29:47;102387.84;;;10.36
8533;BMP280;4304;53.876;10.662;2023-05-07T07:32:12;102396.41;;;10.38
8533;BMP280;4304;53.876;10.662;2023-05-07T07:34:37;102399.66;;;10.43
8533;BMP280;4304;53.876;10.662;2023-05-07T07:37:03;102396.25;;;10.42
8533;BMP280;4304;53.876;10.662;2023-05-07T07:39:31;102395.06;;;10.49
8533;BMP280;4304;53.876;10.662;2023-05-07T07:41:57;102391.47;;;10.32
8533;BMP280;4304;53.876;10.662;2023-05-07T07:44:22;102389.28;;;10.43
8533;BMP280;4304;53.876;10.662;2023-05-07T07:46:48;102393.13;;;10.54
8533;BMP280;4304;53.876;10.662;2023-05-07T07:49:13;102394.38;;;10.65
8533;BMP280;4304;53.876;10.662;2023-05-07T07:51:39;102386.06;;;10.77
8533;BMP280;4304;53.876;10.662;2023-05-07T07:54:05;102382.97;;;10.69
8533;BMP280;4304;53.876;10.662;2023-05-07T07:56:31;102373.28;;;10.73
8533;BMP280;4304;53.876;10.662;2023-05-07T07:58:57;102380.47;;;11.06
8533;BMP280;4304;53.876;10.662;2023-05-07T08:01:22;102387.75;;;10.98
8533;BMP280;4304;53.876;10.662;2023-05-07T08:03:47;102381.06;;;10.93
8533;BMP280;4304;53.876;10.662;2023-05-07T08:06:13;102404.75;;;11.25
8533;BMP280;4304;53.876;10.662;2023-05-07T08:08:38;102390.41;;;11.54
8533;BMP280;4304;53.876;10.662;2023-05-07T08:11:04;102393.38;;;11.65
8533;BMP280;4304;53.876;10.662;2023-05-07T08:13:29;102393.53;;;11.43
8533;BMP280;4304;53.876;10.662;2023-05-07T08:15:54;102392.75;;;11.79
8533;BMP280;4304;53.876;10.662;2023-05-07T08:18:20;102400.94;;;11.71
8533;BMP280;4304;53.876;10.662;2023-05-07T08:20:45;102370.88;;;11.45
8533;BMP280;4304;53.876;10.662;2023-05-07T08:23:11;102393.94;;;11.72
8533;BMP280;4304;53.876;10.662;2023-05-07T08:25:36;102396.34;;;11.76
8533;BMP280;4304;53.876;10.662;2023-05-07T08:28:02;102400.44;;;12.17
8533;BMP280;4304;53.876;10.662;2023-05-07T08:30:28;102384.66;;;11.85
8533;BMP280;4304;53.876;10.662;2023-05-07T08:32:53;102386.34;;;11.86
8533;BMP280;4304;53.876;10.662;2023-05-07T08:35:19;102392.47;;;11.85
8533;BMP280;4304;53.876;10.662;2023-05-07T08:37:44;102392.06;;;11.75
8533;BMP280;4304;53.876;10.662;2023-05-07T08:40:10;102399.47;;;11.84
8533;BMP280;4304;53.876;10.662;2023-05-07T08:42:36;102384.22;;;11.93
8533;BMP280;4304;53.876;10.662;2023-05-07T08:45:04;102399.59;;;11.81
8533;BMP280;4304;53.876;10.662;2023-05-07T08:47:37;102385.56;;;11.84
8533;BMP280;4304;53.876;10.662;2023-05-07T08:50:04;102394.16;;;12.39
8533;BMP280;4304;53.876;10.662;2023-05-07T08:52:30;102402.44;;;12.64
8533;BMP280;4304;53.876;10.662;2023-05-07T08:54:56;102404.50;;;12.57
8533;BMP280;4304;53.876;10.662;2023-05-07T08:57:21;102393.03;;;12.26
8533;BMP280;4304;53.876;10.662;2023-05-07T08:59:49;102398.53;;;12.55
8533;BMP280;4304;53.876;10.662;2023-05-07T09:02:15;102397.84;;;12.35
8533;BMP280;4304;53.876;10.662;2023-05-07T09:04:41;102394.44;;;12.33
8533;BMP280;4304;53.876;10.662;2023-05-07T09:07:06;102389.91;;;12.36
8533;BMP280;4304;53.876;10.662;2023-05-07T09:09:32;102403.06;;;12.52
8533;BMP280;4304;53.876;10.662;2023-05-07T09:11:58;102398.94;;;12.65
8533;BMP280;4304;53.876;10.662;2023-05-07T09:14:25;102419.22;;;12.93
8533;BMP280;4304;53.876;10.662;2023-05-07T09:16:52;102404.63;;;12.89
8533;BMP280;4304;53.876;10.662;2023-05-07T09:19:22;102418.97;;;13.15
8533;BMP280;4304;53.876;10.662;2023-05-07T09:21:48;102402.50;;;12.79
8533;BMP280;4304;53.876;10.662;2023-05-07T09:24:15;102429.19;;;12.85
8533;BMP280;4304;53.876;10.662;2023-05-07T09:26:41;102409.47;;;13.14
8533;BMP280;4304;53.876;10.662;2023-05-07T09:29:07;102411.81;;;13.18
8533;BMP280;4304;53.876;10.662;2023-05-07T09:31:37;102408.13;;;13.22
8533;BMP280;4304;53.876;10.662;2023-05-07T09:34:04;102412.06;;;13.14
8533;BMP280;4304;53.876;10.662;2023-05-07T09:36:31;102421.50;;;13.16
8533;BMP280;4304;53.876;10.662;2023-05-07T09:38:59;102406.88;;;13.61
8533;BMP280;4304;53.876;10.662;2023-05-07T09:41:25;102404.22;;;13.46
8533;BMP280;4304;53.876;10.662;2023-05-07T09:43:54;102407.03;;;13.58
8533;BMP280;4304;53.876;10.662;2023-05-07T09:46:25;102409.81;;;13.55
8533;BMP280;4304;53.876;10.662;2023-05-07T09:48:52;102390.13;;;13.80
8533;BMP280;4304;53.876;10.662;2023-05-07T09:51:41;102403.25;;;13.64
8533;BMP280;4304;53.876;10.662;2023-05-07T09:54:08;102408.25;;;13.83
8533;BMP280;4304;53.876;10.662;2023-05-07T09:56:35;102423.97;;;14.29
8533;BMP280;4304;53.876;10.662;2023-05-07T09:59:03;102421.66;;;14.39
8533;BMP280;4304;53.876;10.662;2023-05-07T10:01:31;102428.66;;;14.53
8533;BMP280;4304;53.876;10.662;2023-05-07T10:03:57;102387.91;;;14.34
8533;BMP280;4304;53.876;10.662;2023-05-07T10:06:24;102400.09;;;14.64
8533;BMP280;4304;53.876;10.662;2023-05-07T10:08:51;102392.94;;;14.52
8533;BMP280;4304;53.876;10.662;2023-05-07T10:11:17;102402.41;;;14.55
8533;BMP280;4304;53.876;10.662;2023-05-07T10:13:43;102414.81;;;14.36
8533;BMP280;4304;53.876;10.662;2023-05-07T10:16:09;102406.41;;;14.16
8533;BMP280;4304;53.876;10.662;2023-05-07T10:18:34;102413.94;;;14.66
8533;BMP280;4304;53.876;10.662;2023-05-07T10:21:20;102415.06;;;14.47
8533;BMP280;4304;53.876;10.662;2023-05-07T10:23:50;102411.19;;;14.83
8533;BMP280;4304;53.876;10.662;2023-05-07T10:26:18;102414.53;;;14.85
8533;BMP280;4304;53.876;10.662;2023-05-07T10:28:47;102404.19;;;14.54
8533;BMP280;4304;53.876;10.662;2023-05-07T10:33:42;102402.81;;;14.63
8533;BMP280;4304;53.876;10.662;2023-05-07T10:36:09;102420.56;;;14.43
8533;BMP280;4304;53.876;10.662;2023-05-07T10:38:35;102419.22;;;14.36
8533;BMP280;4304;53.876;10.662;2023-05-07T10:41:01;102408.75;;;14.36
8533;BMP280;4304;53.876;10.662;2023-05-07T10:43:38;102406.06;;;14.37
8533;BMP280;4304;53.876;10.662;2023-05-07T10:51:30;102447.25;;;15.64
8533;BMP280;4304;53.876;10.662;2023-05-07T10:56:35;102414.78;;;15.53
8533;BMP280;4304;53.876;10.662;2023-05-07T11:02:04;102464.53;;;15.94
8533;BMP280;4304;53.876;10.662;2023-05-07T11:04:32;102450.75;;;16.05
8533;BMP280;4304;53.876;10.662;2023-05-07T11:15:08;102446.41;;;15.78
8533;BMP280;4304;53.876;10.662;2023-05-07T11:17:34;102426.53;;;16.41
8533;BMP280;4304;53.876;10.662;2023-05-07T11:20:01;102483.38;;;16.67
8533;BMP280;4304;53.876;10.662;2023-05-07T11:25:00;102485.69;;;16.98
8533;BMP280;4304;53.876;10.662;2023-05-07T11:27:26;102474.41;;;16.45
8533;BMP280;4304;53.876;10.662;2023-05-07T11:29:52;102443.38;;;16.64
8533;BMP280;4304;53.876;10.662;2023-05-07T11:32:28;102466.53;;;16.83
8533;BMP280;4304;53.876;10.662;2023-05-07T11:34:55;102421.84;;;16.59
8533;BMP280;4304;53.876;10.662;2023-05-07T11:37:21;102439.72;;;16.66
8533;BMP280;4304;53.876;10.662;2023-05-07T11:39:47;102461.19;;;16.46
8533;BMP280;4304;53.876;10.662;2023-05-07T11:42:29;102424.00;;;16.40
8533;BMP280;4304;53.876;10.662;2023-05-07T11:44:55;102466.06;;;16.65
8533;BMP280;4304;53.876;10.662;2023-05-07T11:47:21;102456.59;;;16.36
8533;BMP280;4304;53.876;10.662;2023-05-07T11:49:48;102440.13;;;16.60
8533;BMP280;4304;53.876;10.662;2023-05-07T11:52:14;102429.88;;;16.82
8533;BMP280;4304;53.876;10.662;2023-05-07T11:54:40;102469.78;;;16.74
8533;BMP280;4304;53.876;10.662;2023-05-07T11:57:05;102452.22;;;16.75
8533;BMP280;4304;53.876;10.662;2023-05-07T11:59:39;102441.91;;;16.33
8533;BMP280;4304;53.876;10.662;2023-05-07T12:02:06;102424.59;;;16.17
8533;BMP280;4304;53.876;10.662;2023-05-07T12:04:33;102421.66;;;15.81
8533;BMP280;4304;53.876;10.662;2023-05-07T12:06:58;102421.50;;;16.24
8533;BMP280;4304;53.876;10.662;2023-05-07T12:09:24;102461.84;;;16.36
8533;BMP280;4304;53.876;10.662;2023-05-07T12:11:51;102448.19;;;16.57
8533;BMP280;4304;53.876;10.662;2023-05-07T12:14:17;102422.53;;;16.22
8533;BMP280;4304;53.876;10.662;2023-05-07T12:16:43;102409.69;;;16.18
8533;BMP280;4304;53.876;10.662;2023-05-07T12:19:10;102408.13;;;16.01
8533;BMP280;4304;53.876;10.662;2023-05-07T12:21:38;102415.63;;;16.07
8533;BMP280;4304;53.876;10.662;2023-05-07T12:24:04;102394.69;;;16.33
8533;BMP280;4304;53.876;10.662;2023-05-07T12:26:30;102395.44;;;15.81
8533;BMP280;4304;53.876;10.662;2023-05-07T12:28:57;102391.03;;;15.82
8533;BMP280;4304;53.876;10.662;2023-05-07T12:31:22;102403.56;;;15.91
8533;BMP280;4304;53.876;10.662;2023-05-07T12:33:50;102410.28;;;15.95
8533;BMP280;4304;53.876;10.662;2023-05-07T12:36:15;102419.03;;;15.95
8533;BMP280;4304;53.876;10.662;2023-05-07T12:38:41;102439.22;;;16.07
8533;BMP280;4304;53.876;10.662;2023-05-07T12:41:10;102421.19;;;15.75
8533;BMP280;4304;53.876;10.662;2023-05-07T12:43:39;102416.16;;;15.58
8533;BMP280;4304;53.876;10.662;2023-05-07T12:46:06;102403.81;;;15.74
8533;BMP280;4304;53.876;10.662;2023-05-07T12:48:32;102426.91;;;15.95
8533;BMP280;4304;53.876;10.662;2023-05-07T12:51:00;102430.81;;;16.02
8533;BMP280;4304;53.876;10.662;2023-05-07T12:53:27;102425.28;;;16.07
8533;BMP280;4304;53.876;10.662;2023-05-07T12:55:54;102426.41;;;16.03
8533;BMP280;4304;53.876;10.662;2023-05-07T12:58:24;102421.88;;;16.19
8533;BMP280;4304;53.876;10.662;2023-05-07T13:00:51;102442.84;;;16.19
8533;BMP280;4304;53.876;10.662;2023-05-07T13:05:55;102420.00;;;15.81
8533;BMP280;4304;53.876;10.662;2023-05-07T13:08:34;102410.69;;;15.75
8533;BMP280;4304;53.876;10.662;2023-05-07T13:11:02;102409.22;;;15.71
8533;BMP280;4304;53.876;10.662;2023-05-07T13:13:35;102408.09;;;15.89
8533;BMP280;4304;53.876;10.662;2023-05-07T13:16:01;102435.38;;;16.13
8533;BMP280;4304;53.876;10.662;2023-05-07T13:18:29;102411.41;;;16.05
8533;BMP280;4304;53.876;10.662;2023-05-07T13:20:55;102408.41;;;16.11
8533;BMP280;4304;53.876;10.662;2023-05-07T13:23:21;102396.75;;;16.15
8533;BMP280;4304;53.876;10.662;2023-05-07T13:25:47;102401.13;;;16.28
8533;BMP280;4304;53.876;10.662;2023-05-07T13:28:12;102404.63;;;16.15
8533;BMP280;4304;53.876;10.662;2023-05-07T13:30:37;102433.31;;;16.31
8533;BMP280;4304;53.876;10.662;2023-05-07T13:33:03;102447.25;;;16.32
8533;BMP280;4304;53.876;10.662;2023-05-07T13:35:28;102427.19;;;16.31
8533;BMP280;4304;53.876;10.662;2023-05-07T13:37:54;102424.81;;;16.40
8533;BMP280;4304;53.876;10.662;2023-05-07T13:40:20;102409.63;;;16.05
8533;BMP280;4304;53.876;10.662;2023-05-07T13:42:46;102398.69;;;15.99
8533;BMP280;4304;53.876;10.662;2023-05-07T13:45:12;102389.09;;;16.25
8533;BMP280;4304;53.876;10.662;2023-05-07T13:47:40;102397.16;;;16.09
8533;BMP280;4304;53.876;10.662;2023-05-07T13:50:06;102397.16;;;16.23
8533;BMP280;4304;53.876;10.662;2023-05-07T13:52:32;102421.59;;;16.49
8533;BMP280;4304;53.876;10.662;2023-05-07T13:54:57;102410.75;;;16.67
8533;BMP280;4304;53.876;10.662;2023-05-07T13:57:23;102429.03;;;16.69
8533;BMP280;4304;53.876;10.662;2023-05-07T13:59:49;102425.31;;;16.59
8533;BMP280;4304;53.876;10.662;2023-05-07T14:02:14;102425.91;;;16.89
8533;BMP280;4304;53.876;10.662;2023-05-07T14:04:40;102454.47;;;16.93
8533;BMP280;4304;53.876;10.662;2023-05-07T14:07:05;102459.53;;;16.96
8533;BMP280;4304;53.876;10.662;2023-05-07T14:09:31;102424.66;;;17.07
8533;BMP280;4304;53.876;10.662;2023-05-07T14:11:56;102428.97;;;16.95
8533;BMP280;4304;53.876;10.662;2023-05-07T14:14:21;102424.66;;;16.94
8533;BMP280;4304;53.876;10.662;2023-05-07T14:16:47;102458.13;;;17.29
8533;BMP280;4304;53.876;10.662;2023-05-07T14:19:12;102462.56;;;17.29
8533;BMP280;4304;53.876;10.662;2023-05-07T14:21:38;102440.38;;;17.20
8533;BMP280;4304;53.876;10.662;2023-05-07T14:24:05;102427.88;;;16.85
8533;BMP280;4304;53.876;10.662;2023-05-07T14:26:31;102453.09;;;17.26
8533;BMP280;4304;53.876;10.662;2023-05-07T14:28:56;102441.81;;;17.12
8533;BMP280;4304;53.876;10.662;2023-05-07T14:31:23;102455.41;;;17.43
8533;BMP280;4304;53.876;10.662;2023-05-07T14:33:49;102427.63;;;17.64
8533;BMP280;4304;53.876;10.662;2023-05-07T14:36:16;102484.22;;;17.32